Time;durP1;ratioP1;P1;durP2;ratioP2;P2;SDS_P1;SDS_P2;PMS_P1;PMS_P2;Temp;Humidity;BMP_temperature;BMP_pressure;BME280_temperature;BME280_humidity;BME280_pressure;Samples;Min_cycle;Max_cycle;Signal;HPM_P1;HPM_P2
2021/10/08 00:01:04;;;;;;;332.40;38.67;;;;;;;;;;5056735;28;20053;-70
2021/10/08 00:03:51;;;;;;;101.80;21.73;;;;;;;;;;5057539;28;20546;-70
2021/10/08 00:06:36;;;;;;;259.70;33.47;;;;;;;;;;5043143;28;20053;-70
2021/10/08 00:09:22;;;;;;;331.05;39.35;;;;;;;;;;5042818;28;20053;-71
2021/10/08 00:12:07;;;;;;;292.27;35.42;;;;;;;;;;5056974;28;20049;-70
2021/10/08 00:14:53;;;;;;;368.88;41.83;;;;;;;;;;5056327;28;20079;-70
2021/10/08 00:17:38;;;;;;;398.77;42.85;;;;;;;;;;5058026;28;20044;-70
2021/10/08 00:20:23;;;;;;;401.95;42.38;;;;;;;;;;5056795;28;20049;-70
2021/10/08 00:23:08;;;;;;;109.72;21.90;;;;;;;;;;5057021;28;20053;-70
2021/10/08 00:25:53;;;;;;;132.32;24.05;;;;;;;;;;5056605;28;20057;-70
2021/10/08 00:28:38;;;;;;;172.57;28.77;;;;;;;;;;5053065;28;20504;-70
2021/10/08 00:31:23;;;;;;;218.25;30.55;;;;;;;;;;5054605;28;20056;-70
2021/10/08 00:34:09;;;;;;;315.67;41.13;;;;;;;;;;5038844;28;20057;-70
2021/10/08 00:36:54;;;;;;;242.80;34.35;;;;;;;;;;5053494;28;20065;-69
2021/10/08 00:39:39;;;;;;;387.80;45.35;;;;;;;;;;5039217;28;20053;-70
2021/10/08 00:42:26;;;;;;;325.13;39.03;;;;;;;;;;5053715;28;20057;-70
2021/10/08 00:45:11;;;;;;;163.30;26.58;;;;;;;;;;5052716;28;20057;-70
2021/10/08 00:48:00;;;;;;;293.17;37.92;;;;;;;;;;5053173;28;20116;-70
2021/10/08 00:50:46;;;;;;;190.82;29.33;;;;;;;;;;5053303;28;20053;-70
2021/10/08 00:53:32;;;;;;;206.73;29.83;;;;;;;;;;5052811;28;20057;-70
2021/10/08 00:56:17;;;;;;;172.82;28.08;;;;;;;;;;5039136;28;20053;-70
2021/10/08 00:59:03;;;;;;;204.07;30.42;;;;;;;;;;5053020;28;20403;-70
2021/10/08 01:01:48;;;;;;;245.48;31.85;;;;;;;;;;5038996;28;20049;-70
2021/10/08 01:04:33;;;;;;;203.05;30.60;;;;;;;;;;5038611;28;20052;-70
2021/10/08 01:07:19;;;;;;;153.60;26.73;;;;;;;;;;5052969;28;20451;-70
2021/10/08 01:10:05;;;;;;;228.90;30.92;;;;;;;;;;5053928;28;20127;-70
2021/10/08 01:12:51;;;;;;;323.10;38.08;;;;;;;;;;5038781;28;20057;-70
2021/10/08 01:15:38;;;;;;;190.18;26.25;;;;;;;;;;5052500;28;20049;-69
2021/10/08 01:18:25;;;;;;;256.15;29.05;;;;;;;;;;5052941;28;20053;-70
2021/10/08 01:21:11;;;;;;;288.20;33.08;;;;;;;;;;5038767;28;20061;-70
2021/10/08 01:23:56;;;;;;;181.13;26.67;;;;;;;;;;5038673;28;20399;-70
2021/10/08 01:26:41;;;;;;;232.05;31.98;;;;;;;;;;5038393;28;20116;-70
2021/10/08 01:29:26;;;;;;;201.73;27.38;;;;;;;;;;5038350;28;20052;-68
2021/10/08 01:32:11;;;;;;;198.52;27.08;;;;;;;;;;5052278;28;20053;-68
2021/10/08 01:34:57;;;;;;;258.60;30.00;;;;;;;;;;5052138;28;20060;-68
2021/10/08 01:37:43;;;;;;;190.52;24.65;;;;;;;;;;5024498;28;20456;-68
2021/10/08 01:40:29;;;;;;;293.30;29.48;;;;;;;;;;5038034;28;20056;-70
2021/10/08 01:43:26;;;;;;;390.85;38.75;;;;;;;;;;5037744;28;20499;-68
2021/10/08 01:46:16;;;;;;;319.42;35.33;;;;;;;;;;5052342;28;20056;-68
2021/10/08 01:49:02;;;;;;;248.23;29.13;;;;;;;;;;5018132;28;20397;-68
2021/10/08 01:51:50;;;;;;;110.15;20.70;;;;;;;;;;5005198;28;20057;-68
2021/10/08 01:54:36;;;;;;;172.27;25.42;;;;;;;;;;5017949;28;20065;-67
2021/10/08 01:57:21;;;;;;;466.55;45.13;;;;;;;;;;5022796;28;20053;-68
2021/10/08 02:00:07;;;;;;;187.43;25.55;;;;;;;;;;5037640;28;20404;-68
2021/10/08 02:02:58;;;;;;;272.95;33.28;;;;;;;;;;5051678;28;20060;-68
2021/10/08 02:05:43;;;;;;;161.75;26.02;;;;;;;;;;5037626;28;20057;-68
2021/10/08 02:08:29;;;;;;;231.18;29.20;;;;;;;;;;5037369;28;20053;-68
2021/10/08 02:11:18;;;;;;;181.25;26.50;;;;;;;;;;5037561;28;20056;-68
2021/10/08 02:14:04;;;;;;;245.13;32.00;;;;;;;;;;5037228;28;20049;-69
2021/10/08 02:16:49;;;;;;;157.82;25.70;;;;;;;;;;5023610;28;20053;-68
2021/10/08 02:19:35;;;;;;;275.25;34.65;;;;;;;;;;5037244;28;20044;-68
2021/10/08 02:22:21;;;;;;;314.95;34.95;;;;;;;;;;5037301;28;20053;-67
2021/10/08 02:25:10;;;;;;;366.98;38.25;;;;;;;;;;5036978;28;20056;-68
2021/10/08 02:27:55;;;;;;;281.42;34.22;;;;;;;;;;5052524;28;20116;-68
2021/10/08 02:30:41;;;;;;;343.80;37.55;;;;;;;;;;5037569;28;20530;-68
2021/10/08 02:33:26;;;;;;;340.40;36.85;;;;;;;;;;5037205;28;20060;-69
2021/10/08 02:36:11;;;;;;;197.43;27.70;;;;;;;;;;5051384;28;20124;-67
2021/10/08 02:38:57;;;;;;;412.92;43.97;;;;;;;;;;5036956;28;20480;-67
2021/10/08 02:41:44;;;;;;;320.13;36.63;;;;;;;;;;5023580;28;20053;-67
2021/10/08 02:44:29;;;;;;;368.67;40.55;;;;;;;;;;5050656;28;20487;-68
2021/10/08 02:47:14;;;;;;;154.40;23.92;;;;;;;;;;5037087;28;20052;-69
2021/10/08 02:50:00;;;;;;;333.00;38.13;;;;;;;;;;5036102;28;20131;-68
2021/10/08 02:52:45;;;;;;;318.92;38.78;;;;;;;;;;5062933;28;20049;-68
2021/10/08 02:55:33;;;;;;;259.70;31.70;;;;;;;;;;5055292;28;20057;-67
2021/10/08 02:58:18;;;;;;;377.35;38.28;;;;;;;;;;5056944;28;20410;-68
2021/10/08 03:01:04;;;;;;;306.10;34.65;;;;;;;;;;5039027;28;20060;-67
2021/10/08 03:03:49;;;;;;;378.95;38.75;;;;;;;;;;5050654;28;20136;-67
2021/10/08 03:06:34;;;;;;;199.75;26.10;;;;;;;;;;5036708;28;20049;-67
2021/10/08 03:09:24;;;;;;;332.83;35.83;;;;;;;;;;5036358;28;20053;-67
2021/10/08 03:12:10;;;;;;;252.02;29.77;;;;;;;;;;5036553;28;20123;-67
2021/10/08 03:14:56;;;;;;;176.27;26.33;;;;;;;;;;5036324;28;20060;-67
2021/10/08 03:17:41;;;;;;;288.77;31.63;;;;;;;;;;5036561;28;20506;-68
2021/10/08 03:20:26;;;;;;;355.08;37.05;;;;;;;;;;5036583;28;20061;-67
2021/10/08 03:23:12;;;;;;;434.02;40.78;;;;;;;;;;5036678;28;20060;-70
2021/10/08 03:25:57;;;;;;;251.43;31.02;;;;;;;;;;5036397;28;20693;-69
2021/10/08 03:28:45;;;;;;;419.85;41.88;;;;;;;;;;5050986;28;20049;-70
2021/10/08 03:31:31;;;;;;;231.45;30.20;;;;;;;;;;5036253;28;20053;-70
2021/10/08 03:34:16;;;;;;;231.68;30.27;;;;;;;;;;5036288;28;20099;-70
2021/10/08 03:37:05;;;;;;;204.15;27.33;;;;;;;;;;5036364;28;20129;-70
2021/10/08 03:39:50;;;;;;;225.95;29.58;;;;;;;;;;5050369;28;20061;-70
2021/10/08 03:42:35;;;;;;;263.17;31.42;;;;;;;;;;5074029;23;20433;-66
2021/10/08 03:45:23;;;;;;;199.48;25.90;;;;;;;;;;5075908;28;20143;-69
2021/10/08 03:48:20;;;;;;;271.55;29.30;;;;;;;;;;5076432;28;20052;-66
2021/10/08 03:51:06;;;;;;;335.00;37.55;;;;;;;;;;5053676;28;20056;-69
2021/10/08 03:53:51;;;;;;;317.70;32.55;;;;;;;;;;5056144;28;20056;-66
2021/10/08 03:56:36;;;;;;;402.50;39.63;;;;;;;;;;5039396;28;20053;-69
2021/10/08 03:59:21;;;;;;;269.83;32.17;;;;;;;;;;5053549;28;20052;-66
2021/10/08 04:02:08;;;;;;;225.05;29.98;;;;;;;;;;5040111;28;20056;-69
2021/10/08 04:04:53;;;;;;;256.92;32.65;;;;;;;;;;5075266;28;20049;-66
2021/10/08 04:07:39;;;;;;;273.98;34.97;;;;;;;;;;5043163;28;20052;-67
2021/10/08 04:10:25;;;;;;;237.95;31.10;;;;;;;;;;5043093;28;20060;-67
2021/10/08 04:13:10;;;;;;;260.40;32.05;;;;;;;;;;5059752;28;20053;-67
2021/10/08 04:15:58;;;;;;;263.90;32.03;;;;;;;;;;5060081;28;20056;-67
2021/10/08 04:18:44;;;;;;;215.13;28.17;;;;;;;;;;5042923;28;20087;-67
2021/10/08 04:21:29;;;;;;;255.43;31.63;;;;;;;;;;5059608;28;20052;-67
2021/10/08 04:24:15;;;;;;;118.00;21.35;;;;;;;;;;5058976;28;20127;-67
2021/10/08 04:27:00;;;;;;;299.80;35.88;;;;;;;;;;5045952;28;20052;-67
2021/10/08 04:29:47;;;;;;;253.55;32.45;;;;;;;;;;5059623;28;20053;-67
2021/10/08 04:32:32;;;;;;;145.77;23.25;;;;;;;;;;5042462;28;20127;-66
2021/10/08 04:35:18;;;;;;;327.35;39.95;;;;;;;;;;5042677;28;20053;-65
2021/10/08 04:38:04;;;;;;;202.10;28.70;;;;;;;;;;5042482;28;20056;-66
2021/10/08 04:40:50;;;;;;;218.43;31.17;;;;;;;;;;5074344;28;20060;-66
2021/10/08 04:43:35;;;;;;;180.43;27.08;;;;;;;;;;5028173;28;20052;-66
2021/10/08 04:46:22;;;;;;;124.53;23.30;;;;;;;;;;5042610;28;20108;-66
2021/10/08 04:49:09;;;;;;;180.93;26.00;;;;;;;;;;5042751;28;20060;-66
2021/10/08 04:51:54;;;;;;;177.40;25.30;;;;;;;;;;5042262;28;20063;-66
2021/10/08 04:54:40;;;;;;;208.10;29.88;;;;;;;;;;5041654;28;20473;-66
2021/10/08 04:57:26;;;;;;;127.50;20.98;;;;;;;;;;5042203;28;20052;-66
2021/10/08 05:00:11;;;;;;;131.80;22.38;;;;;;;;;;5059079;28;20056;-69
2021/10/08 05:02:58;;;;;;;199.77;28.80;;;;;;;;;;5042032;28;20048;-66
2021/10/08 05:05:53;;;;;;;123.80;22.27;;;;;;;;;;5041653;28;20127;-69
2021/10/08 05:08:49;;;;;;;195.18;28.58;;;;;;;;;;5030815;28;20578;-68
2021/10/08 05:11:39;;;;;;;165.68;26.02;;;;;;;;;;5042186;28;20056;-69
2021/10/08 05:14:25;;;;;;;148.27;24.58;;;;;;;;;;5040769;28;20049;-65
2021/10/08 05:17:11;;;;;;;213.25;30.90;;;;;;;;;;5041728;28;20057;-65
2021/10/08 05:19:57;;;;;;;185.85;27.15;;;;;;;;;;5055759;28;20056;-68
2021/10/08 05:22:57;;;;;;;122.72;21.70;;;;;;;;;;5041928;28;20119;-66
2021/10/08 05:25:42;;;;;;;355.60;37.70;;;;;;;;;;5041104;28;20063;-68
2021/10/08 05:28:27;;;;;;;230.20;30.20;;;;;;;;;;5041844;28;20053;-66
2021/10/08 05:31:14;;;;;;;285.25;34.45;;;;;;;;;;5041672;28;20052;-68
2021/10/08 05:34:00;;;;;;;304.08;35.97;;;;;;;;;;5027547;28;20514;-66
2021/10/08 05:36:49;;;;;;;301.92;38.63;;;;;;;;;;5041213;28;20076;-66
2021/10/08 05:39:34;;;;;;;273.48;34.85;;;;;;;;;;5058530;28;20634;-66
2021/10/08 05:42:39;;;;;;;313.63;35.05;;;;;;;;;;5051037;28;20036;-66
2021/10/08 05:49:26;;;;;;;233.02;31.60;;;;;;;;;;5081993;28;20060;-66
2021/10/08 05:52:11;;;;;;;332.90;37.05;;;;;;;;;;5096616;28;20092;-65
2021/10/08 05:54:56;;;;;;;133.32;24.17;;;;;;;;;;5065584;28;20051;-66
2021/10/08 05:57:41;;;;;;;259.88;34.53;;;;;;;;;;5038328;28;20080;-66
2021/10/08 06:00:27;;;;;;;226.82;31.95;;;;;;;;;;5050059;28;20044;-66
2021/10/08 06:03:12;;;;;;;359.85;40.88;;;;;;;;;;5082632;28;20049;-66
2021/10/08 06:05:57;;;;;;;93.10;20.13;;;;;;;;;;5065832;28;20056;-66
2021/10/08 06:08:42;;;;;;;189.70;29.10;;;;;;;;;;5047659;28;20052;-66
2021/10/08 06:11:30;;;;;;;227.95;30.90;;;;;;;;;;5058789;28;20053;-66
2021/10/08 06:14:15;;;;;;;125.35;23.88;;;;;;;;;;5072651;28;20082;-66
2021/10/08 06:17:01;;;;;;;161.90;26.45;;;;;;;;;;5072493;28;20502;-66
2021/10/08 06:19:46;;;;;;;230.27;29.55;;;;;;;;;;5057525;28;20119;-66
2021/10/08 06:22:31;;;;;;;155.88;26.27;;;;;;;;;;5072670;28;20518;-66
2021/10/08 06:25:18;;;;;;;160.88;25.90;;;;;;;;;;5056319;28;20131;-66
2021/10/08 06:28:05;;;;;;;477.38;50.83;;;;;;;;;;5057380;28;20464;-66
2021/10/08 06:30:52;;;;;;;375.90;44.67;;;;;;;;;;5056971;28;20056;-66
2021/10/08 06:33:38;;;;;;;188.20;30.77;;;;;;;;;;5056980;28;20545;-66
2021/10/08 06:36:23;;;;;;;153.07;29.48;;;;;;;;;;5057076;28;20124;-66
2021/10/08 06:39:10;;;;;;;539.95;57.13;;;;;;;;;;5057410;28;20052;-66
2021/10/08 06:41:56;;;;;;;516.88;60.72;;;;;;;;;;5057018;28;20052;-66
2021/10/08 06:44:48;;;;;;;500.25;58.03;;;;;;;;;;5056833;28;20053;-66
2021/10/08 06:47:35;;;;;;;283.58;40.72;;;;;;;;;;5056975;28;20145;-67
2021/10/08 06:50:20;;;;;;;399.38;47.92;;;;;;;;;;5072297;28;20044;-60
2021/10/08 06:53:07;;;;;;;275.75;37.40;;;;;;;;;;5056766;28;20441;-60
2021/10/08 06:55:54;;;;;;;313.70;43.95;;;;;;;;;;5056886;28;20065;-60
2021/10/08 06:59:08;;;;;;;394.45;47.78;;;;;;;;;;5056974;28;20052;-60
2021/10/08 07:01:54;;;;;;;367.73;44.80;;;;;;;;;;5056514;28;20060;-60
2021/10/08 07:04:40;;;;;;;452.80;55.95;;;;;;;;;;5052214;28;20131;-60
2021/10/08 07:07:27;;;;;;;151.07;29.23;;;;;;;;;;5053848;28;20045;-60
2021/10/08 07:10:18;;;;;;;339.40;41.83;;;;;;;;;;5070894;28;20052;-60
2021/10/08 07:13:03;;;;;;;215.05;35.50;;;;;;;;;;5058571;28;20048;-59
2021/10/08 07:16:12;;;;;;;206.88;35.13;;;;;;;;;;5095913;28;20045;-61
2021/10/08 07:19:33;;;;;;;176.45;30.42;;;;;;;;;;5064619;28;20066;-60
2021/10/08 07:22:18;;;;;;;231.68;38.13;;;;;;;;;;5094765;28;20041;-60
2021/10/08 07:25:04;;;;;;;78.88;24.05;;;;;;;;;;5061457;28;20375;-62
2021/10/08 07:27:50;;;;;;;244.52;42.20;;;;;;;;;;5051881;28;20049;-62
2021/10/08 07:30:35;;;;;;;114.68;28.58;;;;;;;;;;5058025;28;20124;-61
2021/10/08 07:33:20;;;;;;;187.52;36.92;;;;;;;;;;5079934;28;20048;-63
2021/10/08 07:36:06;;;;;;;197.77;37.15;;;;;;;;;;5061829;28;20056;-60
2021/10/08 07:38:51;;;;;;;114.70;29.80;;;;;;;;;;5082382;28;20044;-61
2021/10/08 07:41:36;;;;;;;141.02;31.70;;;;;;;;;;5088553;28;20448;-62
2021/10/08 07:44:22;;;;;;;104.68;28.85;;;;;;;;;;5063898;28;20044;-62
2021/10/08 07:47:07;;;;;;;59.83;24.77;;;;;;;;;;5104928;28;20044;-61
2021/10/08 07:49:53;;;;;;;50.83;23.67;;;;;;;;;;5098310;28;20040;-62
2021/10/08 07:52:38;;;;;;;88.93;28.73;;;;;;;;;;5098726;28;20048;-59
2021/10/08 07:55:23;;;;;;;89.20;29.20;;;;;;;;;;5088784;28;20056;-60
2021/10/08 07:58:09;;;;;;;75.10;27.90;;;;;;;;;;5075059;28;20052;-61
2021/10/08 08:00:55;;;;;;;80.68;29.77;;;;;;;;;;5075628;28;20445;-60
2021/10/08 08:03:40;;;;;;;109.63;30.95;;;;;;;;;;5075032;28;20056;-60
2021/10/08 08:06:25;;;;;;;77.85;30.52;;;;;;;;;;5075086;28;20049;-63
2021/10/08 08:09:11;;;;;;;121.72;34.88;;;;;;;;;;5055359;28;20458;-60
2021/10/08 08:11:56;;;;;;;112.60;34.40;;;;;;;;;;5054931;28;20502;-60
2021/10/08 08:14:41;;;;;;;63.17;27.02;;;;;;;;;;5082908;28;20115;-60
2021/10/08 08:17:27;;;;;;;64.80;29.98;;;;;;;;;;5090489;28;20115;-60
2021/10/08 08:20:12;;;;;;;76.03;30.52;;;;;;;;;;5081308;28;20048;-60
2021/10/08 08:22:57;;;;;;;77.53;28.05;;;;;;;;;;5083870;28;20045;-60
2021/10/08 08:25:43;;;;;;;81.20;32.08;;;;;;;;;;5084870;28;20044;-59
2021/10/08 08:28:28;;;;;;;57.10;29.80;;;;;;;;;;5081936;28;20048;-60
2021/10/08 08:31:15;;;;;;;48.90;27.15;;;;;;;;;;5064520;28;20056;-59
2021/10/08 08:34:00;;;;;;;48.35;27.77;;;;;;;;;;5081507;28;20052;-61
2021/10/08 08:36:45;;;;;;;53.45;27.98;;;;;;;;;;5074765;28;20441;-60
2021/10/08 08:39:33;;;;;;;114.53;33.40;;;;;;;;;;5074282;28;20064;-60
2021/10/08 08:42:18;;;;;;;65.50;31.67;;;;;;;;;;5074352;28;20060;-61
2021/10/08 08:45:04;;;;;;;58.83;30.75;;;;;;;;;;5074178;28;20052;-61
2021/10/08 08:48:04;;;;;;;47.88;28.85;;;;;;;;;;5073476;28;20053;-61
2021/10/08 08:50:49;;;;;;;52.53;29.83;;;;;;;;;;5054582;28;20048;-61
2021/10/08 08:53:35;;;;;;;55.92;31.88;;;;;;;;;;5054129;28;20095;-60
2021/10/08 08:56:20;;;;;;;52.40;31.55;;;;;;;;;;5054042;28;20523;-59
2021/10/08 08:59:06;;;;;;;56.25;32.85;;;;;;;;;;5060834;28;20422;-61
2021/10/08 09:02:01;;;;;;;53.72;29.60;;;;;;;;;;5073957;28;20057;-60
2021/10/08 09:04:46;;;;;;;47.92;30.83;;;;;;;;;;5073556;28;20052;-60
2021/10/08 09:07:32;;;;;;;47.95;29.55;;;;;;;;;;5059322;28;20052;-60
2021/10/08 09:10:19;;;;;;;53.83;30.95;;;;;;;;;;5073792;28;20506;-61
2021/10/08 09:13:04;;;;;;;47.15;30.10;;;;;;;;;;5073633;28;20128;-61
2021/10/08 09:15:50;;;;;;;43.90;30.10;;;;;;;;;;5073628;28;20052;-61
2021/10/08 09:18:39;;;;;;;58.13;30.42;;;;;;;;;;5073849;28;20057;-62
2021/10/08 09:21:24;;;;;;;56.30;34.55;;;;;;;;;;5073295;28;20145;-62
2021/10/08 09:24:17;;;;;;;40.22;29.55;;;;;;;;;;5073615;28;20128;-62
2021/10/08 09:27:12;;;;;;;44.30;29.35;;;;;;;;;;5066582;28;20480;-62
2021/10/08 09:29:58;;;;;;;39.28;28.23;;;;;;;;;;5079812;28;20049;-62
2021/10/08 09:32:50;;;;;;;35.65;24.88;;;;;;;;;;5083195;28;20041;-62
2021/10/08 09:35:35;;;;;;;;;;;;;;;;;;5084085;28;20048;-62
2021/10/08 09:38:21;;;;;;;35.53;24.50;;;;;;;;;;5093922;28;19960;-62
2021/10/08 09:41:06;;;;;;;32.55;25.30;;;;;;;;;;5081650;28;20399;-61
2021/10/08 09:43:52;;;;;;;35.05;23.02;;;;;;;;;;5080057;28;20052;-61
2021/10/08 09:46:37;;;;;;;34.00;25.42;;;;;;;;;;5081544;28;20075;-61
2021/10/08 09:49:23;;;;;;;32.70;23.42;;;;;;;;;;5080257;28;20040;-61
2021/10/08 09:52:26;;;;;;;29.42;22.23;;;;;;;;;;5073108;28;20053;-62
2021/10/08 09:55:12;;;;;;;33.28;21.95;;;;;;;;;;5072920;28;20049;-62
2021/10/08 09:57:58;;;;;;;29.15;21.48;;;;;;;;;;5073150;28;20123;-69
2021/10/08 10:01:01;;;;;;;25.33;18.42;;;;;;;;;;5056619;28;20041;-69
2021/10/08 10:03:52;;;;;;;27.20;19.38;;;;;;;;;;5053832;28;20509;-69
2021/10/08 10:06:37;;;;;;;23.23;16.65;;;;;;;;;;5074039;28;20056;-70
2021/10/08 10:09:23;;;;;;;20.63;16.13;;;;;;;;;;5077840;28;20082;-70
2021/10/08 10:12:08;;;;;;;18.33;15.13;;;;;;;;;;5080180;28;20052;-69
2021/10/08 10:14:54;;;;;;;18.58;15.95;;;;;;;;;;5062455;28;20423;-69
2021/10/08 10:17:39;;;;;;;20.65;16.65;;;;;;;;;;5051437;28;20082;-69
2021/10/08 10:20:24;;;;;;;20.33;16.40;;;;;;;;;;5044617;28;20123;-70
2021/10/08 10:23:09;;;;;;;16.75;13.68;;;;;;;;;;5092772;28;20052;-69
2021/10/08 10:25:55;;;;;;;17.88;15.20;;;;;;;;;;5074365;28;20501;-69
2021/10/08 10:28:40;;;;;;;15.85;13.80;;;;;;;;;;5077537;28;20047;-69
2021/10/08 10:31:25;;;;;;;15.95;13.98;;;;;;;;;;5047638;28;20119;-69
2021/10/08 10:34:11;;;;;;;18.48;15.32;;;;;;;;;;5057169;28;20434;-69
2021/10/08 10:36:56;;;;;;;19.00;13.80;;;;;;;;;;5040502;28;20131;-69
2021/10/08 10:39:42;;;;;;;15.23;13.60;;;;;;;;;;5072439;28;20123;-69
2021/10/08 10:42:27;;;;;;;17.98;14.05;;;;;;;;;;5056656;28;20049;-69
2021/10/08 10:45:26;;;;;;;16.33;12.10;;;;;;;;;;5071608;28;20716;-69
2021/10/08 10:48:13;;;;;;;15.57;13.07;;;;;;;;;;5072109;28;20442;-62
2021/10/08 10:51:11;;;;;;;17.30;13.07;;;;;;;;;;5072009;28;20056;-62
2021/10/08 10:53:57;;;;;;;13.45;11.63;;;;;;;;;;5071476;28;20045;-62
2021/10/08 10:56:42;;;;;;;14.43;11.60;;;;;;;;;;5070830;28;20056;-62
2021/10/08 10:59:28;;;;;;;12.45;11.02;;;;;;;;;;5072028;28;20056;-61
2021/10/08 11:02:17;;;;;;;12.80;11.05;;;;;;;;;;5071917;28;20048;-62
2021/10/08 11:05:22;;;;;;;13.82;11.13;;;;;;;;;;5071720;28;20131;-62
2021/10/08 11:08:12;;;;;;;12.32;9.20;;;;;;;;;;5072205;28;20052;-62
2021/10/08 11:11:00;;;;;;;11.93;9.10;;;;;;;;;;5071303;28;20109;-61
2021/10/08 11:13:47;;;;;;;9.77;8.88;;;;;;;;;;5071728;28;20559;-61
2021/10/08 11:16:33;;;;;;;10.93;9.20;;;;;;;;;;5071972;28;20049;-61
2021/10/08 11:19:38;;;;;;;10.20;8.00;;;;;;;;;;5071761;28;20514;-61
2021/10/08 11:22:41;;;;;;;7.55;6.85;;;;;;;;;;5071522;28;20124;-61
2021/10/08 11:25:26;;;;;;;10.52;8.15;;;;;;;;;;5071856;28;20052;-61
2021/10/08 11:28:12;;;;;;;12.85;8.18;;;;;;;;;;5071776;28;20510;-61
2021/10/08 11:30:57;;;;;;;12.27;8.00;;;;;;;;;;5071488;28;20057;-62
2021/10/08 11:33:44;;;;;;;9.88;8.88;;;;;;;;;;5051664;28;20053;-62
2021/10/08 11:36:30;;;;;;;10.15;9.00;;;;;;;;;;5051855;28;20056;-62
2021/10/08 11:39:17;;;;;;;11.60;8.73;;;;;;;;;;5052059;28;20053;-62
2021/10/08 11:42:12;;;;;;;9.18;8.25;;;;;;;;;;5058155;28;20052;-62
2021/10/08 11:47:50;;;;;;;7.60;5.72;;;;;;;;;;5072206;28;20092;-62
2021/10/08 11:53:23;;;;;;;8.82;7.22;;;;;;;;;;5067862;28;20103;-62
2021/10/08 11:56:27;;;;;;;7.45;6.50;;;;;;;;;;5056947;28;20102;-62
2021/10/08 11:59:15;;;;;;;9.15;6.45;;;;;;;;;;5071376;28;20091;-63
2021/10/08 12:02:13;;;;;;;4.80;3.95;;;;;;;;;;5070871;28;20045;-62
2021/10/08 12:04:58;;;;;;;5.85;3.60;;;;;;;;;;5071281;28;20449;-62
2021/10/08 12:07:54;;;;;;;6.25;4.15;;;;;;;;;;5071348;28;20048;-62
2021/10/08 12:10:39;;;;;;;6.43;4.75;;;;;;;;;;5056132;28;20052;-62
2021/10/08 12:13:42;;;;;;;6.18;4.53;;;;;;;;;;5071300;28;20056;-62
2021/10/08 12:16:34;;;;;;;5.45;4.20;;;;;;;;;;5071061;28;20441;-62
2021/10/08 12:19:19;;;;;;;4.85;4.15;;;;;;;;;;5071585;28;20514;-62
2021/10/08 12:22:04;;;;;;;5.70;5.20;;;;;;;;;;5056224;28;20071;-62
2021/10/08 12:24:50;;;;;;;5.60;4.72;;;;;;;;;;5074110;28;20056;-62
2021/10/08 12:27:35;;;;;;;6.15;5.60;;;;;;;;;;5074887;28;20477;-62
2021/10/08 12:30:21;;;;;;;6.15;5.47;;;;;;;;;;5074799;28;20052;-62
2021/10/08 12:33:06;;;;;;;7.55;6.07;;;;;;;;;;5074410;28;20040;-62
2021/10/08 12:36:12;;;;;;;6.85;6.25;;;;;;;;;;5074647;28;20052;-62
2021/10/08 12:38:58;;;;;;;7.85;6.35;;;;;;;;;;5074603;28;20056;-61
2021/10/08 12:41:49;;;;;;;6.43;5.82;;;;;;;;;;5074132;28;20422;-61
2021/10/08 12:44:36;;;;;;;7.32;6.63;;;;;;;;;;5074317;28;20053;-61
2021/10/08 12:47:26;;;;;;;8.18;7.38;;;;;;;;;;5074443;28;20048;-63
2021/10/08 12:50:15;;;;;;;9.73;6.18;;;;;;;;;;5074632;28;20052;-61
2021/10/08 12:53:01;;;;;;;7.13;6.53;;;;;;;;;;5074269;28;20098;-61
2021/10/08 12:55:48;;;;;;;6.75;6.07;;;;;;;;;;5074062;28;20049;-61
2021/10/08 12:58:33;;;;;;;8.48;6.50;;;;;;;;;;5074641;28;20048;-61
2021/10/08 13:01:18;;;;;;;7.15;6.43;;;;;;;;;;5059391;28;20048;-61
2021/10/08 13:04:19;;;;;;;6.43;5.82;;;;;;;;;;5073905;28;20063;-61
2021/10/08 13:07:13;;;;;;;7.53;6.53;;;;;;;;;;5074231;28;20045;-64
2021/10/08 13:10:08;;;;;;;7.10;6.40;;;;;;;;;;5076047;28;20048;-63
2021/10/08 13:12:54;;;;;;;7.38;6.47;;;;;;;;;;5079452;28;20052;-65
2021/10/08 13:15:39;;;;;;;7.22;6.53;;;;;;;;;;5079577;28;20052;-65
2021/10/08 13:18:24;;;;;;;6.53;5.85;;;;;;;;;;5063768;28;20076;-63
2021/10/08 13:21:10;;;;;;;6.78;6.07;;;;;;;;;;5080922;28;20045;-64
2021/10/08 13:23:56;;;;;;;7.90;5.65;;;;;;;;;;5078766;28;20072;-64
2021/10/08 13:26:41;;;;;;;8.48;6.05;;;;;;;;;;5062014;28;20045;-64
2021/10/08 13:29:26;;;;;;;6.75;5.88;;;;;;;;;;5078137;28;20135;-63
2021/10/08 13:32:11;;;;;;;6.68;6.03;;;;;;;;;;5078753;28;20049;-65
2021/10/08 13:34:57;;;;;;;8.80;5.88;;;;;;;;;;5078299;28;20060;-64
2021/10/08 13:37:42;;;;;;;5.47;4.97;;;;;;;;;;5064109;28;20044;-64
2021/10/08 13:40:27;;;;;;;6.60;4.75;;;;;;;;;;5080250;28;20048;-64
2021/10/08 13:43:13;;;;;;;7.43;5.38;;;;;;;;;;5079850;28;20057;-64
2021/10/08 13:45:58;;;;;;;6.03;5.18;;;;;;;;;;5079096;28;20127;-65
2021/10/08 13:48:43;;;;;;;5.82;5.22;;;;;;;;;;5078350;28;20044;-63
2021/10/08 13:51:29;;;;;;;7.10;5.75;;;;;;;;;;5073242;28;20123;-64
2021/10/08 13:54:14;;;;;;;6.82;6.13;;;;;;;;;;5077163;28;20526;-63
2021/10/08 13:57:00;;;;;;;7.53;6.20;;;;;;;;;;5078088;28;20127;-64
2021/10/08 13:59:45;;;;;;;7.47;6.60;;;;;;;;;;5077189;28;20057;-62
2021/10/08 14:02:36;;;;;;;8.23;6.15;;;;;;;;;;5075183;28;20052;-64
2021/10/08 14:05:34;;;;;;;12.98;6.93;;;;;;;;;;5073813;28;20057;-62
2021/10/08 14:11:24;;;;;;;7.28;6.18;;;;;;;;;;5074113;28;20505;-62
2021/10/08 14:14:09;;;;;;;8.35;5.57;;;;;;;;;;5074011;28;20502;-62
2021/10/08 14:16:54;;;;;;;6.80;6.20;;;;;;;;;;5074637;28;20119;-63
2021/10/08 14:19:40;;;;;;;7.40;6.45;;;;;;;;;;5075199;28;20044;-62
2021/10/08 14:22:26;;;;;;;6.10;5.45;;;;;;;;;;5062930;28;20120;-62
2021/10/08 14:25:11;;;;;;;8.02;5.95;;;;;;;;;;5095173;28;20453;-61
2021/10/08 14:27:57;;;;;;;7.03;5.57;;;;;;;;;;5075758;28;20041;-62
2021/10/08 14:30:42;;;;;;;8.57;5.35;;;;;;;;;;5072687;28;20049;-62
2021/10/08 14:33:27;;;;;;;4.82;4.35;;;;;;;;;;5072269;28;20048;-63
2021/10/08 14:36:13;;;;;;;5.43;4.90;;;;;;;;;;5072398;28;20056;-62
2021/10/08 14:38:58;;;;;;;5.20;4.70;;;;;;;;;;5072436;28;20056;-61
2021/10/08 14:41:43;;;;;;;6.72;5.28;;;;;;;;;;5072158;28;20052;-62
2021/10/08 14:44:28;;;;;;;6.07;5.47;;;;;;;;;;5071850;28;20052;-62
2021/10/08 14:47:14;;;;;;;5.90;4.90;;;;;;;;;;5071495;28;20049;-62
2021/10/08 14:49:59;;;;;;;6.53;4.80;;;;;;;;;;5072349;28;20479;-62
2021/10/08 14:52:45;;;;;;;5.43;4.97;;;;;;;;;;5071922;28;20044;-62
2021/10/08 14:58:19;;;;;;;5.72;5.15;;;;;;;;;;5071940;28;20056;-62
2021/10/08 15:01:04;;;;;;;6.28;5.57;;;;;;;;;;5071700;28;20499;-62
2021/10/08 15:03:50;;;;;;;7.45;5.40;;;;;;;;;;5071931;28;20128;-62
2021/10/08 15:06:35;;;;;;;7.82;5.60;;;;;;;;;;5071954;28;20045;-62
2021/10/08 15:09:20;;;;;;;6.20;5.70;;;;;;;;;;5051900;28;20056;-62
2021/10/08 15:12:06;;;;;;;7.07;6.35;;;;;;;;;;5051847;28;20052;-62
2021/10/08 15:14:51;;;;;;;10.25;6.60;;;;;;;;;;5051540;28;20053;-61
2021/10/08 15:17:38;;;;;;;5.88;5.25;;;;;;;;;;5069938;28;20048;-61
2021/10/08 15:20:23;;;;;;;9.68;6.50;;;;;;;;;;5071085;28;20088;-62
2021/10/08 15:23:09;;;;;;;5.57;5.07;;;;;;;;;;5071456;28;20124;-62
2021/10/08 15:25:54;;;;;;;6.38;5.78;;;;;;;;;;5070772;28;20507;-62
2021/10/08 15:28:40;;;;;;;6.32;5.70;;;;;;;;;;5069253;28;20052;-62
2021/10/08 15:31:25;;;;;;;6.07;5.50;;;;;;;;;;5074126;28;20056;-63
2021/10/08 15:34:10;;;;;;;6.38;4.93;;;;;;;;;;5073438;28;20048;-63
2021/10/08 15:36:56;;;;;;;5.80;5.20;;;;;;;;;;5073207;28;20049;-61
2021/10/08 15:39:41;;;;;;;5.97;5.40;;;;;;;;;;5071510;28;20115;-61
2021/10/08 15:42:27;;;;;;;5.45;5.05;;;;;;;;;;5110047;22;20045;-64
2021/10/08 15:45:13;;;;;;;7.72;6.00;;;;;;;;;;5069450;28;20048;-63
2021/10/08 15:47:58;;;;;;;6.40;5.90;;;;;;;;;;5070082;28;20052;-63
2021/10/08 15:50:44;;;;;;;6.70;6.00;;;;;;;;;;5069989;28;20041;-63
2021/10/08 15:53:29;;;;;;;7.05;5.88;;;;;;;;;;5049422;28;20116;-63
2021/10/08 15:56:14;;;;;;;6.32;5.72;;;;;;;;;;5049813;28;20045;-63
2021/10/08 15:58:59;;;;;;;7.20;6.60;;;;;;;;;;5047836;28;20049;-63
2021/10/08 16:01:44;;;;;;;7.80;7.07;;;;;;;;;;5052419;28;20053;-64
2021/10/08 16:04:30;;;;;;;7.90;7.13;;;;;;;;;;5046327;28;20506;-62
2021/10/08 16:07:15;;;;;;;8.18;6.97;;;;;;;;;;5052696;28;20045;-62
2021/10/08 16:10:00;;;;;;;7.88;7.18;;;;;;;;;;5052193;28;20514;-62
2021/10/08 16:12:45;;;;;;;9.40;7.15;;;;;;;;;;5053195;28;20117;-62
2021/10/08 16:15:31;;;;;;;9.48;8.57;;;;;;;;;;5050074;28;20559;-62
2021/10/08 16:18:27;;;;;;;18.80;9.00;;;;;;;;;;5051543;28;20451;-63
2021/10/08 16:21:12;;;;;;;9.27;8.48;;;;;;;;;;5032722;28;20116;-62
2021/10/08 16:23:58;;;;;;;8.35;7.63;;;;;;;;;;5037532;28;20049;-62
2021/10/08 16:26:44;;;;;;;8.43;7.63;;;;;;;;;;5051151;28;20079;-62
2021/10/08 16:29:29;;;;;;;9.85;7.22;;;;;;;;;;5037063;28;20515;-62